Time;durP1;ratioP1;P1;durP2;ratioP2;P2;SDS_P1;SDS_P2;PMS_P1;PMS_P2;Temp;Humidity;BMP_temperature;BMP_pressure;BME280_temperature;BME280_humidity;BME280_pressure;Samples;Min_cycle;Max_cycle;Signal;HPM_P1;HPM_P2
2022/04/13 00:02:11;;;;;;;1.00;0.80;;;;;;;17.31;54.15;96315.41;10364921;28;20030;-22
2022/04/13 00:07:12;;;;;;;1.08;0.90;;;;;;;17.16;53.60;96331.44;10363618;28;20033;-23
2022/04/13 00:12:12;;;;;;;1.00;0.90;;;;;;;17.06;54.11;96326.41;10366135;28;20404;-22
2022/04/13 00:17:16;;;;;;;1.60;1.00;;;;;;;17.03;53.74;96327.25;10364264;28;20167;-22
2022/04/13 00:22:16;;;;;;;1.05;0.82;;;;;;;17.01;53.93;96326.41;10359139;28;20026;-23
2022/04/13 00:27:16;;;;;;;1.97;1.00;;;;;;;17.02;53.78;96327.25;10364045;28;20040;-23
2022/04/13 00:32:17;;;;;;;1.58;0.70;;;;;;;17.00;53.82;96331.47;10361834;28;20408;-22
2022/04/13 00:37:17;;;;;;;1.17;1.00;;;;;;;17.00;54.03;96331.47;10361900;28;20117;-22
2022/04/13 00:42:17;;;;;;;1.20;1.10;;;;;;;17.00;53.94;96328.94;10365165;28;20030;-22
2022/04/13 00:47:18;;;;;;;1.43;1.17;;;;;;;16.97;54.10;96324.72;10356657;28;20288;-23
2022/04/13 00:52:20;;;;;;;1.17;0.88;;;;;;;17.00;53.94;96326.41;10362866;28;20304;-23
2022/04/13 00:57:22;;;;;;;1.02;0.85;;;;;;;16.99;53.77;96323.03;10364682;28;20126;-23
2022/04/13 01:02:23;;;;;;;2.35;1.13;;;;;;;17.25;55.25;96331.44;10360807;28;20119;-22
2022/04/13 01:07:24;;;;;;;1.23;1.00;;;;;;;17.37;55.19;96328.94;10361379;28;20141;-22
2022/04/13 01:12:24;;;;;;;0.80;0.68;;;;;;;17.27;53.56;96334.81;10358374;28;20038;-23
2022/04/13 01:17:25;;;;;;;2.20;0.93;;;;;;;17.12;53.92;96339.03;10363963;28;20095;-23
2022/04/13 01:22:25;;;;;;;1.37;0.90;;;;;;;17.05;53.64;96339.88;10361805;28;20057;-23
2022/04/13 01:27:26;;;;;;;1.48;0.90;;;;;;;17.01;53.92;96335.69;10364905;28;20770;-22
2022/04/13 01:32:27;;;;;;;1.35;1.08;;;;;;;17.00;53.86;96334.00;10358100;28;20130;-22
2022/04/13 01:37:27;;;;;;;0.63;0.43;;;;;;;17.00;53.88;96339.88;10361795;28;20033;-22
2022/04/13 01:42:28;;;;;;;1.60;0.93;;;;;;;16.99;54.10;96338.19;10364505;28;20223;-23
2022/04/13 01:47:29;;;;;;;1.20;0.80;;;;;;;16.98;54.23;96345.81;10365335;28;20033;-23
2022/04/13 01:52:29;;;;;;;1.17;0.90;;;;;;;16.99;54.21;96338.19;10369364;28;20042;-22
2022/04/13 01:57:29;;;;;;;1.17;0.90;;;;;;;16.98;53.94;96340.75;10369090;28;20467;-22
2022/04/13 02:02:30;;;;;;;0.90;0.70;;;;;;;16.98;54.08;96350.88;10363913;28;20036;-23
2022/04/13 02:07:30;;;;;;;1.23;0.80;;;;;;;16.98;54.26;96335.69;10360563;28;20041;-22
2022/04/13 02:12:32;;;;;;;1.43;0.80;;;;;;;17.23;54.73;96333.13;10370155;28;20293;-22
2022/04/13 02:17:32;;;;;;;1.08;0.70;;;;;;;17.36;54.96;96339.03;10358762;28;20042;-22
2022/04/13 02:22:33;;;;;;;1.98;0.98;;;;;;;17.26;53.91;96339.88;10367953;28;20038;-23
2022/04/13 02:27:33;;;;;;;0.90;0.83;;;;;;;17.11;53.53;96337.34;10369599;28;20044;-23
2022/04/13 02:32:40;;;;;;;1.00;0.70;;;;;;;17.04;54.05;96335.66;10364087;28;20354;-22
2022/04/13 02:37:42;;;;;;;1.30;0.80;;;;;;;17.03;53.90;96337.38;10367000;28;20375;-23
2022/04/13 02:42:42;;;;;;;0.75;0.70;;;;;;;16.94;53.81;96324.72;10369106;28;20455;-23
2022/04/13 02:47:43;;;;;;;0.87;0.70;;;;;;;16.99;53.92;96340.72;10365848;28;20045;-23
2022/04/13 02:52:43;;;;;;;1.60;0.73;;;;;;;16.99;53.92;96342.44;10364866;28;20132;-23
2022/04/13 02:57:44;;;;;;;1.00;0.70;;;;;;;16.99;54.19;96347.50;10367701;28;20151;-22
2022/04/13 03:02:44;;;;;;;1.27;1.00;;;;;;;16.91;53.90;96341.59;10360846;28;20034;-22
2022/04/13 03:07:45;;;;;;;1.05;0.73;;;;;;;16.97;54.19;96344.94;10366324;28;20038;-23
2022/04/13 03:12:45;;;;;;;0.83;0.67;;;;;;;16.97;54.11;96344.09;10368807;28;20040;-23
2022/04/13 03:17:45;;;;;;;0.95;0.70;;;;;;;17.04;55.60;96350.84;10366641;28;20034;-22
2022/04/13 03:22:46;;;;;;;0.70;0.60;;;;;;;17.27;55.25;96349.16;10365780;28;20038;-23
2022/04/13 03:27:46;;;;;;;1.00;0.73;;;;;;;17.35;54.27;96343.25;10367680;28;20042;-24
2022/04/13 03:32:47;;;;;;;0.70;0.53;;;;;;;17.23;53.62;96339.88;10364517;28;20042;-23
2022/04/13 03:37:47;;;;;;;0.67;0.60;;;;;;;17.09;53.64;96339.88;10365550;28;20289;-23
2022/04/13 03:42:47;;;;;;;1.57;0.70;;;;;;;17.03;53.69;96341.56;10365975;28;20036;-23
2022/04/13 03:47:48;;;;;;;0.80;0.57;;;;;;;17.04;53.75;96345.78;10365679;28;20757;-23
2022/04/13 03:52:48;;;;;;;1.13;0.80;;;;;;;16.98;53.81;96330.63;10361689;28;20033;-22
2022/04/13 03:57:50;;;;;;;0.77;0.70;;;;;;;17.03;53.91;96336.50;10361186;28;20571;-23
2022/04/13 04:02:51;;;;;;;0.90;0.60;;;;;;;17.06;53.60;96334.81;10359846;28;20033;-22
2022/04/13 04:07:52;;;;;;;0.90;0.70;;;;;;;17.08;53.59;96337.38;10355964;28;20037;-23
2022/04/13 04:12:52;;;;;;;1.00;0.70;;;;;;;17.10;53.60;96335.66;10348416;28;20037;-22
2022/04/13 04:17:52;;;;;;;0.50;0.50;;;;;;;17.09;53.72;96339.06;10350103;28;20605;-22
2022/04/13 04:22:55;;;;;;;0.80;0.80;;;;;;;16.85;53.61;96294.41;10354558;28;20026;-22
2022/04/13 04:27:55;;;;;;;2.30;1.00;;;;;;;17.17;56.14;96332.28;10354553;28;20049;-22
2022/04/13 04:32:55;;;;;;;3.50;0.80;;;;;;;17.34;56.55;96335.66;10364342;28;20413;-23
2022/04/13 04:37:56;;;;;;;0.63;0.63;;;;;;;17.38;54.95;96342.41;10356510;28;20296;-23
2022/04/13 04:42:58;;;;;;;0.80;0.60;;;;;;;17.20;53.84;96342.41;10364852;28;20040;-23
2022/04/13 04:48:04;;;;;;;1.17;0.80;;;;;;;17.20;54.33;96344.94;10360586;28;20064;-22
2022/04/13 04:53:04;;;;;;;0.88;0.70;;;;;;;17.18;53.95;96344.09;10363615;28;20033;-22
2022/04/13 04:58:05;;;;;;;1.70;1.08;;;;;;;17.16;53.63;96355.91;10362528;28;20037;-23
2022/04/13 05:03:05;;;;;;;3.07;1.20;;;;;;;17.15;53.79;96364.34;10359017;28;20097;-23
2022/04/13 05:08:07;;;;;;;2.65;0.80;;;;;;;17.15;53.48;96370.22;10362390;28;20053;-22
2022/04/13 05:13:07;;;;;;;7.38;1.10;;;;;;;17.14;54.53;96377.84;10362653;28;20045;-22
2022/04/13 05:18:08;;;;;;;2.13;0.93;;;;;;;17.09;53.54;96385.41;10360350;28;20442;-22
2022/04/13 05:23:08;;;;;;;1.20;0.60;;;;;;;17.09;53.56;96389.63;10366517;28;20416;-22
2022/04/13 05:28:08;;;;;;;1.23;1.00;;;;;;;17.08;53.58;96391.31;10370008;28;20041;-22
2022/04/13 05:33:09;;;;;;;13.10;2.40;;;;;;;17.10;55.58;96388.78;10372046;28;20056;-23
2022/04/13 05:38:09;;;;;;;22.60;2.88;;;;;;;17.02;52.16;96391.31;10361709;28;20297;-22
2022/04/13 05:43:10;;;;;;;8.02;1.95;;;;;;;17.26;54.82;96403.13;10371687;28;20057;-22
2022/04/13 05:48:10;;;;;;;5.30;1.00;;;;;;;17.32;53.67;96414.06;10363094;28;20032;-22
2022/04/13 05:53:10;;;;;;;2.57;0.77;;;;;;;17.16;53.73;96416.63;10369235;28;20036;-22
2022/04/13 05:58:11;;;;;;;4.30;1.00;;;;;;;17.09;53.70;96419.97;10370656;28;20045;-23
2022/04/13 06:03:11;;;;;;;4.97;1.13;;;;;;;17.03;53.69;96414.91;10369680;28;20026;-22
2022/04/13 06:08:13;;;;;;;4.75;1.60;;;;;;;17.04;53.45;96427.56;10368354;28;20034;-22
2022/04/13 06:13:13;;;;;;;0.98;0.60;;;;;;;17.03;53.49;96428.41;10370670;28;20034;-23
2022/04/13 06:18:13;;;;;;;3.10;1.43;;;;;;;17.03;53.82;96437.66;10367121;28;20476;-22
2022/04/13 06:23:14;;;;;;;1.67;1.00;;;;;;;17.03;53.85;96445.25;10368190;28;20296;-22
2022/04/13 06:28:14;;;;;;;1.33;0.67;;;;;;;17.06;53.63;96455.41;10369263;28;20350;-22
2022/04/13 06:33:15;;;;;;;5.32;1.33;;;;;;;17.10;53.79;96452.00;10363197;28;20034;-23
2022/04/13 06:38:15;;;;;;;0.73;0.60;;;;;;;17.12;53.77;96460.44;10364621;28;20100;-24
2022/04/13 06:43:16;;;;;;;1.50;0.82;;;;;;;17.11;53.36;96458.75;10369030;28;20825;-22
2022/04/13 06:48:16;;;;;;;2.87;1.07;;;;;;;17.28;55.49;96462.16;10366101;28;20040;-23
2022/04/13 06:53:17;;;;;;;3.87;1.27;;;;;;;17.41;55.88;96463.88;10367810;28;20403;-23
2022/04/13 06:58:19;;;;;;;2.95;0.75;;;;;;;17.27;53.89;96450.34;10368920;28;20049;-23
2022/04/13 07:03:20;;;;;;;1.00;0.73;;;;;;;17.18;53.72;96462.97;10364085;28;20045;-22
2022/04/13 07:08:20;;;;;;;1.45;1.17;;;;;;;17.15;53.66;96461.28;10365776;28;20045;-22
2022/04/13 07:13:20;;;;;;;0.70;0.60;;;;;;;17.13;53.75;96469.72;10368253;28;20037;-23
2022/04/13 07:18:21;;;;;;;0.93;0.70;;;;;;;17.04;53.75;96464.66;10363034;28;20367;-23
2022/04/13 07:23:21;;;;;;;0.50;0.50;;;;;;;16.99;53.41;96453.69;10366344;28;20056;-22
2022/04/13 07:28:22;;;;;;;1.27;0.77;;;;;;;17.08;53.78;96473.94;10367117;28;20042;-22
2022/04/13 07:33:22;;;;;;;2.27;1.73;;;;;;;17.08;53.78;96474.75;10361255;28;20041;-22
2022/04/13 07:38:22;;;;;;;1.10;0.90;;;;;;;17.04;53.81;96473.09;10366213;28;20050;-23
2022/04/13 07:43:23;;;;;;;0.73;0.50;;;;;;;17.06;53.90;96480.69;10366442;28;20077;-23
2022/04/13 07:48:23;;;;;;;0.83;0.50;;;;;;;17.06;53.98;96480.69;10365283;28;20396;-22
2022/04/13 07:53:24;;;;;;;1.60;0.55;;;;;;;17.06;53.80;96485.75;10364862;28;20500;-23
2022/04/13 07:58:24;;;;;;;1.40;0.60;;;;;;;17.27;55.28;96479.03;10366153;28;20069;-23
2022/04/13 08:03:24;;;;;;;1.70;0.70;;;;;;;17.41;55.33;96476.53;10359565;28;20386;-22
2022/04/13 08:08:25;;;;;;;2.30;0.90;;;;;;;17.32;53.98;96486.63;10363637;28;20038;-23
2022/04/13 08:13:25;;;;;;;1.10;0.60;;;;;;;17.15;53.89;96481.53;10366130;28;20492;-22
2022/04/13 08:18:25;;;;;;;0.70;0.43;;;;;;;17.10;53.77;96488.28;10360846;28;20415;-23
2022/04/13 08:23:26;;;;;;;0.93;0.60;;;;;;;17.08;53.93;96484.06;10363045;28;20064;-22
2022/04/13 08:28:26;;;;;;;0.70;0.50;;;;;;;17.08;53.97;96489.13;10365606;28;20034;-22
2022/04/13 08:33:27;;;;;;;0.70;0.50;;;;;;;16.92;54.06;96470.53;10360823;28;20049;-22
2022/04/13 08:38:28;;;;;;;1.55;0.70;;;;;;;17.06;54.07;96493.34;10363401;28;20326;-23
2022/04/13 08:43:57;;;;;;;0.63;0.60;;;;;;;17.02;53.84;96489.09;10365412;28;20036;-23
2022/04/13 08:49:00;;;;;;;1.95;0.70;;;;;;;17.04;53.97;96487.41;10358010;28;20030;-23
2022/04/13 08:54:30;;;;;;;0.65;0.50;;;;;;;17.04;53.87;96484.88;10363451;28;20088;-23
2022/04/13 08:59:38;;;;;;;1.75;0.65;;;;;;;16.95;53.82;96477.28;10371441;28;20105;-22
2022/04/13 09:04:43;;;;;;;1.77;1.10;;;;;;;17.10;56.41;96487.44;10358558;28;20404;-22
2022/04/13 09:09:49;;;;;;;2.72;1.00;;;;;;;17.32;55.64;96501.81;10368457;28;20046;-23
2022/04/13 09:14:49;;;;;;;1.17;0.70;;;;;;;17.40;54.81;96492.56;10372194;28;20030;-22
2022/04/13 09:19:49;;;;;;;1.40;0.77;;;;;;;17.25;53.65;96502.63;10371461;28;20412;-22
2022/04/13 09:24:51;;;;;;;0.83;0.50;;;;;;;17.12;53.67;96511.88;10370233;28;20307;-23
2022/04/13 09:29:52;;;;;;;1.30;0.75;;;;;;;17.07;53.86;96507.66;10371065;28;20034;-22
2022/04/13 09:34:53;;;;;;;2.57;0.87;;;;;;;17.07;54.05;96502.59;10370113;28;20160;-22
2022/04/13 09:39:54;;;;;;;1.65;0.70;;;;;;;17.06;53.82;96505.97;10371955;28;20038;-23
2022/04/13 09:44:56;;;;;;;0.57;0.47;;;;;;;17.04;53.88;96500.91;10365935;28;20056;-23
2022/04/13 09:49:56;;;;;;;0.70;0.60;;;;;;;17.04;53.91;96503.44;10373661;28;20109;-23
2022/04/13 09:54:58;;;;;;;1.08;0.45;;;;;;;17.03;54.10;96490.78;10372440;28;20117;-22
2022/04/13 10:00:05;;;;;;;1.05;0.50;;;;;;;16.96;54.01;96478.97;10369904;28;20030;-23
2022/04/13 10:05:18;;;;;;;0.40;0.40;;;;;;;17.03;53.99;96483.19;10370094;28;20069;-22
2022/04/13 10:10:23;;;;;;;0.75;0.50;;;;;;;17.03;54.13;96480.66;10370460;28;20029;-22
2022/04/13 10:15:24;;;;;;;1.33;0.90;;;;;;;17.21;55.92;96473.97;10371376;28;20156;-23
2022/04/13 10:20:40;;;;;;;1.63;0.90;;;;;;;17.37;55.43;96464.72;10371951;28;20129;-23
2022/04/13 10:25:42;;;;;;;0.53;0.53;;;;;;;17.37;54.11;96465.56;10364733;28;20033;-23
2022/04/13 10:30:43;;;;;;;1.13;0.47;;;;;;;17.20;53.68;96463.81;10372286;28;20802;-23
2022/04/13 10:35:45;;;;;;;0.85;0.50;;;;;;;17.14;53.73;96466.38;10369432;28;20048;-23
2022/04/13 10:40:48;;;;;;;0.90;0.60;;;;;;;17.12;53.93;96470.56;10370239;28;20109;-23
2022/04/13 10:45:49;;;;;;;0.70;0.55;;;;;;;17.10;53.71;96467.19;10364175;28;20407;-22
2022/04/13 10:51:02;;;;;;;1.00;0.57;;;;;;;17.09;53.90;96473.09;10371232;28;20034;-23
2022/04/13 10:56:04;;;;;;;0.57;0.40;;;;;;;17.10;53.85;96472.25;10369244;28;20379;-22
2022/04/13 11:01:11;;;;;;;0.40;0.40;;;;;;;17.13;53.75;96472.25;10368642;28;20064;-23
2022/04/13 11:06:13;;;;;;;1.00;0.80;;;;;;;17.11;53.88;96473.94;10370737;28;20065;-22
2022/04/13 11:11:17;;;;;;;2.85;0.95;;;;;;;17.11;53.83;96473.94;10368717;28;20252;-22
2022/04/13 11:16:18;;;;;;;2.47;0.43;;;;;;;17.10;54.07;96473.09;10368776;28;20038;-22
2022/04/13 11:21:18;;;;;;;3.30;1.80;;;;;;;17.05;54.09;96464.66;10369026;28;20041;-21
2022/04/13 11:26:27;;;;;;;6.37;1.10;;;;;;;17.33;56.28;96468.06;10367882;28;20444;-21
2022/04/13 11:31:27;;;;;;;5.15;1.10;;;;;;;17.45;55.87;96461.34;10366694;28;20348;-22
2022/04/13 11:36:29;;;;;;;4.53;1.07;;;;;;;17.33;53.90;96461.28;10370165;28;20514;-23
2022/04/13 11:41:29;;;;;;;2.00;0.60;;;;;;;17.19;54.04;96452.03;10371000;28;20042;-22
2022/04/13 11:46:38;;;;;;;16.07;4.07;;;;;;;17.12;54.03;96460.44;10370402;28;20504;-22
2022/04/13 11:51:39;;;;;;;5.13;1.13;;;;;;;17.10;54.80;96459.59;10362015;28;20137;-24
2022/04/13 11:56:51;;;;;;;4.88;0.82;;;;;;;17.09;54.10;96466.34;10365778;28;20034;-23
2022/04/13 12:01:55;;;;;;;1.42;0.60;;;;;;;17.07;54.25;96457.91;10368729;28;20396;-24
2022/04/13 12:06:55;;;;;;;1.02;0.55;;;;;;;17.07;54.19;96457.09;10363997;28;20413;-23
2022/04/13 12:11:55;;;;;;;2.92;0.70;;;;;;;17.07;54.14;96457.09;10370181;28;20041;-22
2022/04/13 12:16:57;;;;;;;0.87;0.60;;;;;;;17.01;54.43;96444.41;10354906;28;20068;-23
2022/04/13 12:21:57;;;;;;;2.38;1.25;;;;;;;17.06;54.31;96455.41;10330438;28;20285;-22
2022/04/13 12:26:58;;;;;;;2.57;0.70;;;;;;;17.04;54.10;96446.94;10328384;28;20046;-22
2022/04/13 12:31:58;;;;;;;5.10;0.90;;;;;;;17.12;57.07;96438.53;10348801;28;20323;-22
2022/04/13 12:37:00;;;;;;;3.27;1.13;;;;;;;17.34;55.38;96440.22;10362990;28;20034;-22
2022/04/13 12:42:02;;;;;;;1.60;0.70;;;;;;;17.43;54.24;96442.81;10327411;28;20033;-23
2022/04/13 12:47:05;;;;;;;0.73;0.47;;;;;;;17.28;54.11;96431.78;10327251;28;20073;-22
2022/04/13 12:52:07;;;;;;;3.83;1.05;;;;;;;17.16;53.96;96426.75;10327256;28;20485;-22
2022/04/13 12:57:08;;;;;;;1.15;0.63;;;;;;;17.10;54.19;96417.47;10327434;28;20066;-23
2022/04/13 13:02:08;;;;;;;0.47;0.30;;;;;;;17.08;53.96;96421.66;10326887;28;20066;-23
2022/04/13 13:07:09;;;;;;;0.77;0.47;;;;;;;17.07;53.89;96411.56;10326747;28;20034;-23
2022/04/13 13:12:15;;;;;;;1.42;0.50;;;;;;;17.06;54.19;96405.63;10326550;28;20428;-24
2022/04/13 13:17:33;;;;;;;1.00;0.60;;;;;;;17.05;54.49;96409.03;10326842;28;20440;-22
2022/04/13 13:22:38;;;;;;;1.67;0.40;;;;;;;17.06;54.16;96404.81;10326179;28;20042;-22
2022/04/13 13:27:43;;;;;;;1.27;0.70;;;;;;;17.04;54.45;96401.41;10326739;28;20097;-22
2022/04/13 13:32:45;;;;;;;0.80;0.73;;;;;;;17.04;54.33;96397.22;10326197;28;20048;-23
2022/04/13 13:37:53;;;;;;;2.65;0.80;;;;;;;17.04;54.53;96388.78;10337249;28;20034;-22
2022/04/13 13:42:53;;;;;;;2.08;0.80;;;;;;;17.25;55.58;96392.16;10368364;28;20064;-23
2022/04/13 13:47:54;;;;;;;1.57;0.80;;;;;;;17.40;55.46;96396.41;10344457;28;20046;-22
2022/04/13 13:52:54;;;;;;;2.40;0.50;;;;;;;17.38;54.29;96393.00;10333066;28;20050;-23
2022/04/13 13:57:58;;;;;;;1.45;0.60;;;;;;;17.24;53.96;96398.06;10333002;28;20053;-22
2022/04/13 14:02:58;;;;;;;1.02;0.80;;;;;;;17.14;54.22;96400.59;10333300;28;20147;-23
2022/04/13 14:08:02;;;;;;;0.67;0.50;;;;;;;17.10;54.42;96396.38;10332703;28;20440;-23
2022/04/13 14:13:06;;;;;;;0.40;0.40;;;;;;;17.08;54.28;96388.78;10332409;28;20038;-23
2022/04/13 14:18:07;;;;;;;0.65;0.40;;;;;;;17.07;54.21;96386.28;10332223;28;20034;-23
2022/04/13 14:23:07;;;;;;;1.10;0.70;;;;;;;17.06;54.53;96379.53;10345205;28;20026;-22
2022/04/13 14:28:08;;;;;;;0.85;0.50;;;;;;;17.03;54.48;96377.84;10373400;28;20030;-22
2022/04/13 14:33:08;;;;;;;1.10;0.60;;;;;;;17.05;54.46;96382.88;10351251;28;20031;-23
2022/04/13 14:38:09;;;;;;;1.10;0.60;;;;;;;16.95;54.46;96371.94;10332124;28;20042;-23
2022/04/13 14:43:10;;;;;;;0.60;0.60;;;;;;;17.03;54.54;96385.41;10331840;28;20748;-22
2022/04/13 14:48:10;;;;;;;1.00;0.82;;;;;;;17.05;54.52;96387.94;10350386;28;20117;-23
2022/04/13 14:53:11;;;;;;;1.30;0.43;;;;;;;17.30;55.65;96395.53;10357006;28;20121;-23
2022/04/13 14:58:12;;;;;;;0.80;0.70;;;;;;;17.44;55.03;96387.94;10331173;28;20495;-22
2022/04/13 15:03:13;;;;;;;0.82;0.43;;;;;;;17.29;54.59;96388.78;10330700;28;20034;-23
2022/04/13 15:08:13;;;;;;;1.70;0.70;;;;;;;17.21;54.19;96402.25;10330476;28;20125;-23
2022/04/13 15:13:15;;;;;;;0.87;0.50;;;;;;;17.12;53.94;96400.59;10330341;28;20042;-23
2022/04/13 15:18:16;;;;;;;0.90;0.70;;;;;;;17.08;54.27;96398.88;10330662;28;20301;-23
2022/04/13 15:23:16;;;;;;;0.57;0.50;;;;;;;17.07;54.38;96402.25;10329888;28;20032;-23
2022/04/13 15:28:17;;;;;;;0.60;0.50;;;;;;;17.06;54.46;96404.81;10329845;28;20299;-23
2022/04/13 15:33:17;;;;;;;1.10;0.60;;;;;;;17.06;54.38;96408.16;10329299;28;20045;-22
2022/04/13 15:38:18;;;;;;;0.60;0.50;;;;;;;17.05;54.39;96410.69;10329470;28;20516;-23
2022/04/13 15:43:19;;;;;;;0.73;0.40;;;;;;;17.07;54.43;96419.16;10329360;28;20058;-23
2022/04/13 15:48:20;;;;;;;0.43;0.32;;;;;;;17.05;54.60;96413.22;10328983;28;20058;-22
2022/04/13 15:53:22;;;;;;;1.02;0.52;;;;;;;17.10;55.11;96424.19;10343672;28;20096;-22
2022/04/13 15:58:23;;;;;;;9.85;1.65;;;;;;;17.14;56.38;96428.44;10369380;28;20054;-23
2022/04/13 16:03:24;;;;;;;13.37;2.60;;;;;;;17.39;56.20;96428.44;10347763;28;20041;-22
2022/04/13 16:08:24;;;;;;;4.17;0.70;;;;;;;17.50;55.93;96433.50;10343522;28;20036;-22
2022/04/13 16:13:24;;;;;;;14.80;2.07;;;;;;;17.34;55.80;96435.16;10368553;28;20041;-22
2022/04/13 16:18:25;;;;;;;7.57;2.07;;;;;;;17.25;54.68;96431.78;10339371;28;20305;-22
2022/04/13 16:23:26;;;;;;;13.20;1.37;;;;;;;17.17;54.90;96429.25;10327939;28;20065;-23
2022/04/13 16:28:26;;;;;;;7.75;1.30;;;;;;;17.15;54.52;96427.59;10327579;28;20034;-23
2022/04/13 16:33:26;;;;;;;9.07;0.95;;;;;;;17.12;54.74;96427.56;10332525;28;20068;-23
2022/04/13 16:38:30;;;;;;;3.70;1.10;;;;;;;17.07;54.63;96429.25;10350750;28;20160;-22
2022/04/13 16:43:31;;;;;;;4.80;1.25;;;;;;;17.07;54.49;96446.97;10327635;28;20217;-22
2022/04/13 16:48:31;;;;;;;8.65;1.48;;;;;;;17.04;56.69;96454.53;10327270;28;20073;-24
2022/04/13 16:53:34;;;;;;;8.52;1.10;;;;;;;17.07;54.81;96452.84;10327535;28;20377;-23
2022/04/13 16:58:35;;;;;;;3.75;0.75;;;;;;;17.30;56.10;96462.97;10333439;28;20037;-23
2022/04/13 17:03:35;;;;;;;3.97;1.00;;;;;;;17.45;55.56;96466.41;10367550;28;20041;-22
2022/04/13 17:08:35;;;;;;;4.10;1.33;;;;;;;17.38;55.36;96461.31;10342367;28;20041;-22
2022/04/13 17:13:36;;;;;;;2.42;0.80;;;;;;;17.26;54.66;96461.31;10346875;28;20628;-22
2022/04/13 17:18:36;;;;;;;9.23;1.63;;;;;;;17.20;54.24;96471.41;10342133;28;20497;-23
2022/04/13 17:23:37;;;;;;;16.67;1.47;;;;;;;17.20;56.13;96476.47;10331406;28;20034;-22
2022/04/13 17:28:37;;;;;;;12.47;1.27;;;;;;;17.18;55.29;96475.63;10369612;28;20034;-22
2022/04/13 17:33:38;;;;;;;10.80;2.10;;;;;;;17.17;54.74;96473.94;10366986;28;20042;-22
2022/04/13 17:38:38;;;;;;;7.00;1.92;;;;;;;17.17;54.28;96479.00;10373122;28;20132;-22
2022/04/13 17:43:39;;;;;;;8.02;1.20;;;;;;;17.15;54.74;96480.69;10374138;28;20088;-22
2022/04/13 17:48:40;;;;;;;3.73;1.00;;;;;;;17.13;54.48;96483.22;10338978;28;20038;-23
2022/04/13 17:53:44;;;;;;;4.10;1.33;;;;;;;17.10;54.48;96478.16;10350973;28;20045;-23
2022/04/13 17:58:44;;;;;;;11.40;1.30;;;;;;;17.10;54.20;96489.97;10373035;28;20033;-22
2022/04/13 18:03:45;;;;;;;6.85;0.93;;;;;;;17.34;55.38;96497.59;10338141;28;20052;-22
2022/04/13 18:08:45;;;;;;;8.30;1.07;;;;;;;17.48;55.97;96496.78;10332760;28;20122;-23
2022/04/13 18:13:45;;;;;;;5.43;1.27;;;;;;;17.24;57.45;96506.00;10332662;28;20037;-22
2022/04/13 18:18:46;;;;;;;2.47;1.13;;;;;;;17.11;57.51;96505.16;10332761;28;20045;-23
2022/04/13 18:23:46;;;;;;;6.50;1.20;;;;;;;17.15;55.57;96519.47;10332053;28;20739;-23
2022/04/13 18:28:47;;;;;;;16.73;1.73;;;;;;;17.13;55.15;96523.69;10339017;28;20034;-22
2022/04/13 18:33:47;;;;;;;6.33;0.93;;;;;;;17.13;55.08;96532.94;10357206;28;20065;-22
2022/04/13 18:38:55;;;;;;;4.93;0.88;;;;;;;17.11;54.92;96547.28;10361350;28;20308;-22
2022/04/13 18:43:55;;;;;;;3.60;1.15;;;;;;;17.10;54.79;96553.19;10350165;28;20567;-23
2022/04/13 18:48:56;;;;;;;7.97;1.40;;;;;;;17.22;56.83;96563.31;10363005;28;20107;-22
2022/04/13 18:53:56;;;;;;;8.32;1.50;;;;;;;17.44;57.24;96565.09;10347095;28;20118;-23
2022/04/13 18:58:57;;;;;;;2.33;0.88;;;;;;;17.43;55.45;96571.00;10373274;28;20030;-22
2022/04/13 19:03:57;;;;;;;5.37;1.50;;;;;;;17.30;55.88;96581.91;10348371;28;20726;-22
2022/04/13 19:08:58;;;;;;;5.78;1.50;;;;;;;17.24;55.26;96579.38;10359358;28;20239;-23
2022/04/13 19:13:58;;;;;;;7.88;2.30;;;;;;;17.20;54.90;96585.25;10366660;28;20120;-22
2022/04/13 19:18:59;;;;;;;6.33;1.03;;;;;;;17.09;55.03;96597.03;10362877;28;20389;-22
2022/04/13 19:23:59;;;;;;;4.53;1.00;;;;;;;17.13;54.70;96596.19;10345651;28;20310;-22
2022/04/13 19:29:00;;;;;;;2.05;1.00;;;;;;;17.12;54.67;96592.84;10330966;28;20038;-23
2022/04/13 19:34:02;;;;;;;5.55;1.25;;;;;;;17.18;56.30;96612.22;10353207;28;20045;-22
2022/04/13 19:39:03;;;;;;;5.28;1.17;;;;;;;17.43;57.54;96625.00;10358506;28;20496;-23
2022/04/13 19:44:04;;;;;;;3.83;0.93;;;;;;;17.45;55.86;96625.00;10365392;28;20037;-23
2022/04/13 19:49:04;;;;;;;2.50;1.25;;;;;;;17.31;55.43;96634.22;10341097;28;20125;-21
2022/04/13 19:54:04;;;;;;;3.20;1.20;;;;;;;17.25;55.10;96644.31;10345526;28;20037;-22
2022/04/13 19:59:05;;;;;;;4.77;1.60;;;;;;;17.14;55.33;96645.97;10364509;28;20767;-23
2022/04/13 20:04:06;;;;;;;3.05;1.00;;;;;;;17.15;55.02;96648.47;10334007;28;20299;-23
2022/04/13 20:09:06;;;;;;;2.93;1.10;;;;;;;17.16;54.70;96654.41;10341634;28;20038;-22
2022/04/13 20:14:06;;;;;;;2.43;1.20;;;;;;;17.12;54.88;96655.22;10339148;28;20298;-23
2022/04/13 20:19:13;;;;;;;2.63;1.20;;;;;;;17.13;57.37;96654.38;10347328;28;20417;-23
2022/04/13 20:24:13;;;;;;;4.53;1.65;;;;;;;17.43;59.61;96662.13;10340172;28;20042;-22
2022/04/13 20:29:14;;;;;;;2.17;0.87;;;;;;;17.42;55.44;96673.06;10343882;28;20087;-23
2022/04/13 20:34:14;;;;;;;1.88;0.90;;;;;;;17.28;54.85;96664.53;10351059;28;20811;-23
2022/04/13 20:39:15;;;;;;;2.60;1.07;;;;;;;17.20;54.95;96671.25;10352843;28;20064;-23
2022/04/13 20:44:15;;;;;;;1.67;1.00;;;;;;;17.17;54.94;96674.63;10363430;28;20034;-23
2022/04/13 20:49:15;;;;;;;1.30;0.70;;;;;;;17.15;54.76;96670.41;10359703;28;20034;-23
2022/04/13 20:54:17;;;;;;;2.90;1.23;;;;;;;17.15;54.94;96672.94;10349168;28;21044;-23
2022/04/13 20:59:18;;;;;;;2.30;0.90;;;;;;;17.13;54.74;96674.59;10335804;28;20520;-23
2022/04/13 21:04:19;;;;;;;6.47;0.80;;;;;;;17.18;55.29;96688.13;10336613;28;20034;-22
2022/04/13 21:09:19;;;;;;;6.07;1.42;;;;;;;17.34;57.71;96687.34;10335631;28;20041;-23
2022/04/13 21:14:20;;;;;;;1.73;0.97;;;;;;;17.49;57.27;96679.84;10358312;28;20041;-22
2022/04/13 21:19:21;;;;;;;4.23;1.27;;;;;;;17.43;55.34;96687.41;10365102;28;20046;-23
2022/04/13 21:24:21;;;;;;;2.58;0.85;;;;;;;17.29;54.67;96683.94;10359683;28;20103;-23
2022/04/13 21:29:22;;;;;;;1.63;0.80;;;;;;;17.24;55.34;96688.16;10371773;28;20036;-23
2022/04/13 21:34:22;;;;;;;1.00;0.50;;;;;;;17.17;54.85;96679.69;10369813;28;20246;-23
2022/04/13 21:39:22;;;;;;;1.57;0.80;;;;;;;17.22;55.02;96690.69;10370623;28;20042;-23
2022/04/13 21:44:23;;;;;;;2.97;0.73;;;;;;;17.22;54.67;96694.88;10375851;28;20782;-23
2022/04/13 21:49:23;;;;;;;2.33;0.97;;;;;;;17.21;54.94;96690.66;10342010;28;20300;-23
2022/04/13 21:54:23;;;;;;;1.17;0.67;;;;;;;17.20;54.72;96694.03;10334772;28;20045;-22
2022/04/13 21:59:24;;;;;;;3.05;1.08;;;;;;;17.26;56.82;96697.44;10334992;28;20814;-23
2022/04/13 22:04:24;;;;;;;2.67;1.20;;;;;;;17.50;57.33;96701.78;10331709;28;20034;-23
2022/04/13 22:09:25;;;;;;;2.17;0.63;;;;;;;17.50;55.18;96706.84;10327960;28;20382;-22
2022/04/13 22:14:25;;;;;;;1.00;0.73;;;;;;;17.29;54.75;96701.66;10328947;28;20042;-22
2022/04/13 22:19:26;;;;;;;1.77;0.87;;;;;;;17.14;54.97;96694.03;10328695;28;20038;-22
2022/04/13 22:24:26;;;;;;;1.40;0.80;;;;;;;17.20;54.94;96710.06;10327978;28;20305;-24
2022/04/13 22:29:27;;;;;;;0.93;0.80;;;;;;;17.19;55.07;96710.06;10338417;28;20332;-22
2022/04/13 22:34:27;;;;;;;1.45;0.60;;;;;;;17.17;54.78;96711.75;10378651;28;20045;-22
2022/04/13 22:39:27;;;;;;;2.10;0.70;;;;;;;17.15;55.09;96718.47;10366203;28;20029;-23
2022/04/13 22:44:28;;;;;;;3.80;0.70;;;;;;;17.14;55.01;96712.56;10371450;28;20467;-22
2022/04/13 22:49:29;;;;;;;1.73;1.23;;;;;;;17.11;55.23;96707.50;10339065;28;20084;-23
2022/04/13 22:54:29;;;;;;;2.07;0.90;;;;;;;17.40;57.18;96708.50;10330359;28;20038;-23
2022/04/13 22:59:29;;;;;;;1.27;0.50;;;;;;;17.52;55.75;96702.63;10330776;28;20121;-23
2022/04/13 23:04:30;;;;;;;1.02;0.50;;;;;;;17.37;54.97;96715.22;10330548;28;20049;-23
2022/04/13 23:09:30;;;;;;;1.53;0.60;;;;;;;17.23;54.84;96705.00;10354536;28;20087;-23
2022/04/13 23:14:30;;;;;;;2.03;0.70;;;;;;;17.19;55.25;96707.53;10369634;28;20285;-22
2022/04/13 23:19:31;;;;;;;0.60;0.60;;;;;;;17.16;54.97;96700.75;10335951;28;20088;-22